createdAt,value
2018-03-26T00:00:49.719Z,18.10
2018-03-26T00:01:49.708Z,18.20
2018-03-26T00:02:49.698Z,18.30
2018-03-26T00:03:49.644Z,18.00
2018-03-26T00:04:49.629Z,20.00
2018-03-26T00:05:49.582Z,18.30
2018-03-26T00:06:49.569Z,17.40
2018-03-26T00:07:49.544Z,19.10
2018-03-26T00:08:49.500Z,19.30
2018-03-26T00:09:49.475Z,20.00
2018-03-26T00:10:49.469Z,17.90
2018-03-26T00:11:49.417Z,17.70
2018-03-26T00:12:49.394Z,18.90
2018-03-26T00:13:49.386Z,19.50
2018-03-26T00:14:49.341Z,19.50
2018-03-26T00:15:49.311Z,17.50
2018-03-26T00:16:49.291Z,19.50
2018-03-26T00:17:49.249Z,17.70
2018-03-26T00:18:49.229Z,18.70
2018-03-26T00:19:49.199Z,19.10
2018-03-26T00:20:49.174Z,19.70
2018-03-26T00:21:49.154Z,18.40
2018-03-26T00:22:49.139Z,19.70
2018-03-26T00:23:49.085Z,17.80
2018-03-26T00:24:49.058Z,18.80
2018-03-26T00:25:49.050Z,18.50
2018-03-26T00:26:49.001Z,19.30
2018-03-26T00:27:48.972Z,18.50
2018-03-26T00:28:48.956Z,17.30
2018-03-26T00:29:48.922Z,20.70
2018-03-26T00:30:48.890Z,19.30
2018-03-26T00:31:48.902Z,16.40
2018-03-26T00:32:48.838Z,20.20
2018-03-26T00:33:48.816Z,18.20
2018-03-26T00:34:48.890Z,18.70
2018-03-26T00:35:48.755Z,17.50
2018-03-26T00:36:48.725Z,18.80
2018-03-26T00:37:48.723Z,18.00
2018-03-26T00:38:48.677Z,18.40
2018-03-26T00:39:48.642Z,17.80
2018-03-26T00:40:48.615Z,17.60
2018-03-26T00:41:48.592Z,18.30
2018-03-26T00:42:48.571Z,18.20
2018-03-26T00:43:48.538Z,18.10
2018-03-26T00:44:48.514Z,18.80
2018-03-26T00:45:48.474Z,19.80
2018-03-26T00:46:48.459Z,19.20
2018-03-26T00:47:48.431Z,18.00
2018-03-26T00:48:48.400Z,17.70
2018-03-26T00:49:48.366Z,19.00
2018-03-26T00:50:48.343Z,18.80
2018-03-26T00:51:48.310Z,17.80
2018-03-26T00:52:48.286Z,18.80
2018-03-26T00:53:48.256Z,17.80
2018-03-26T00:54:48.229Z,18.20
2018-03-26T00:55:48.192Z,19.70
2018-03-26T00:56:48.173Z,18.50
2018-03-26T00:57:48.507Z,17.10
2018-03-26T00:58:48.112Z,18.20
2018-03-26T00:59:48.082Z,18.00
2018-03-26T01:00:48.059Z,18.50
2018-03-26T01:01:48.028Z,16.70
2018-03-26T01:02:47.999Z,17.80
2018-03-26T01:03:47.972Z,19.10
2018-03-26T01:04:47.944Z,18.60
2018-03-26T01:05:47.919Z,17.90
2018-03-26T01:06:47.893Z,18.50
2018-03-26T01:07:47.858Z,18.30
2018-03-26T01:08:47.827Z,17.80
2018-03-26T01:09:47.830Z,17.60
2018-03-26T01:10:47.774Z,19.30
2018-03-26T01:11:47.746Z,18.50
2018-03-26T01:12:47.713Z,16.40
2018-03-26T01:13:47.689Z,17.70
2018-03-26T01:14:47.660Z,17.50
2018-03-26T01:15:47.629Z,17.20
2018-03-26T01:16:47.609Z,17.90
2018-03-26T01:17:47.580Z,15.70
2018-03-26T01:18:47.551Z,16.90
2018-03-26T01:19:47.515Z,16.20
2018-03-26T01:20:47.495Z,17.10
2018-03-26T01:21:47.465Z,17.30
2018-03-26T01:22:47.435Z,17.50
2018-03-26T01:23:47.406Z,18.90
2018-03-26T01:24:47.383Z,16.50
2018-03-26T01:25:47.354Z,16.80
2018-03-26T01:26:47.324Z,16.20
2018-03-26T01:27:47.301Z,17.40
2018-03-26T01:28:47.264Z,18.20
2018-03-26T01:29:47.246Z,17.60
2018-03-26T01:30:47.211Z,16.60
2018-03-26T01:31:47.182Z,16.60
2018-03-26T01:32:47.155Z,16.90
2018-03-26T01:33:47.121Z,16.50
2018-03-26T01:34:47.100Z,18.50
2018-03-26T01:35:47.071Z,14.80
2018-03-26T01:36:47.039Z,16.50
2018-03-26T01:37:47.091Z,17.50
2018-03-26T01:38:46.994Z,18.30
2018-03-26T01:39:46.952Z,17.70
2018-03-26T01:40:46.926Z,17.70
2018-03-26T01:41:46.906Z,17.30
2018-03-26T01:42:46.878Z,18.40
2018-03-26T01:43:47.697Z,17.30
2018-03-26T01:44:46.818Z,17.80
2018-03-26T01:45:46.783Z,17.00
2018-03-26T01:46:46.754Z,17.70
2018-03-26T01:47:46.729Z,18.00
2018-03-26T01:48:46.728Z,17.40
2018-03-26T01:49:46.676Z,19.30
2018-03-26T01:50:46.643Z,17.10
2018-03-26T01:51:46.611Z,17.30
2018-03-26T01:52:46.594Z,16.40
2018-03-26T01:53:46.560Z,17.40
2018-03-26T01:54:46.525Z,17.80
2018-03-26T01:55:46.506Z,17.10
2018-03-26T01:56:46.473Z,17.90
2018-03-26T01:57:46.441Z,16.00
2018-03-26T01:58:46.419Z,15.10
2018-03-26T01:59:46.386Z,16.60
2018-03-26T02:00:46.360Z,16.80
2018-03-26T02:01:46.339Z,17.90
2018-03-26T02:02:46.303Z,15.70
2018-03-26T02:03:46.277Z,18.10
2018-03-26T02:04:46.304Z,16.90
2018-03-26T02:05:46.220Z,18.80
2018-03-26T02:06:46.191Z,17.60
2018-03-26T02:07:46.184Z,16.10
2018-03-26T02:08:46.134Z,16.10
2018-03-26T02:09:46.097Z,16.00
2018-03-26T02:10:46.092Z,17.50
2018-03-26T02:11:46.047Z,16.50
2018-03-26T02:12:46.019Z,16.20
2018-03-26T02:13:45.986Z,16.30
2018-03-26T02:14:45.955Z,16.90
2018-03-26T02:15:45.932Z,16.40
2018-03-26T02:16:45.897Z,15.80
2018-03-26T02:17:45.876Z,15.50
2018-03-26T02:18:45.848Z,17.10
2018-03-26T02:19:45.812Z,16.40
2018-03-26T02:20:45.785Z,17.40
2018-03-26T02:21:45.760Z,15.40
2018-03-26T02:22:45.733Z,16.10
2018-03-26T02:23:45.704Z,17.00
2018-03-26T02:24:45.675Z,16.10
2018-03-26T02:25:45.643Z,16.80
2018-03-26T02:26:45.615Z,15.00
2018-03-26T02:27:45.608Z,16.50
2018-03-26T02:28:45.560Z,17.10
2018-03-26T02:29:45.535Z,15.50
2018-03-26T02:30:45.510Z,16.70
2018-03-26T02:31:45.473Z,18.20
2018-03-26T02:32:45.439Z,16.40
2018-03-26T02:33:45.416Z,17.30
2018-03-26T02:34:45.408Z,15.50
2018-03-26T02:35:45.354Z,16.00
2018-03-26T02:36:45.360Z,15.10
2018-03-26T02:37:45.307Z,16.70
2018-03-26T02:38:45.285Z,15.50
2018-03-26T02:39:45.245Z,14.60
2018-03-26T02:40:45.220Z,16.10
2018-03-26T02:41:45.193Z,16.40
2018-03-26T02:42:45.185Z,15.80
2018-03-26T02:43:45.140Z,14.80
2018-03-26T02:44:45.101Z,17.00
2018-03-26T02:45:45.081Z,15.30
2018-03-26T02:46:45.045Z,15.10
2018-03-26T02:47:45.022Z,15.70
2018-03-26T02:48:44.989Z,15.40
2018-03-26T02:49:44.981Z,16.70
2018-03-26T02:50:44.959Z,15.10
2018-03-26T02:51:44.900Z,15.60
2018-03-26T02:52:44.874Z,15.10
2018-03-26T02:53:44.840Z,15.40
2018-03-26T02:54:44.814Z,15.80
2018-03-26T02:55:44.783Z,16.30
2018-03-26T02:56:44.758Z,16.00
2018-03-26T02:57:44.732Z,15.90
2018-03-26T02:58:44.695Z,15.80
2018-03-26T02:59:44.677Z,18.50
2018-03-26T03:00:44.653Z,16.30
2018-03-26T03:01:44.634Z,15.50
2018-03-26T03:02:44.593Z,17.60
2018-03-26T03:03:44.576Z,17.70
2018-03-26T03:04:44.543Z,17.00
2018-03-26T03:05:44.498Z,16.20
2018-03-26T03:06:44.469Z,16.20
2018-03-26T03:07:44.440Z,16.60
2018-03-26T03:08:44.410Z,17.10
2018-03-26T03:09:44.378Z,17.00
2018-03-26T03:10:44.377Z,18.30
2018-03-26T03:11:44.321Z,17.20
2018-03-26T03:12:44.297Z,17.10
2018-03-26T03:13:44.264Z,16.20
2018-03-26T03:14:44.238Z,17.10
2018-03-26T03:15:44.210Z,15.90
2018-03-26T03:16:44.184Z,18.90
2018-03-26T03:17:44.153Z,16.00
2018-03-26T03:18:44.132Z,16.10
2018-03-26T03:19:44.134Z,18.90
2018-03-26T03:20:44.110Z,17.20
2018-03-26T03:21:44.094Z,17.50
2018-03-26T03:22:44.199Z,16.20
2018-03-26T03:23:44.051Z,17.60
2018-03-26T03:24:44.009Z,17.30
2018-03-26T03:25:43.917Z,17.70
2018-03-26T03:26:43.901Z,18.50
2018-03-26T03:27:43.873Z,17.00
2018-03-26T03:28:43.831Z,18.20
2018-03-26T03:29:43.808Z,15.10
2018-03-26T03:30:43.768Z,17.80
2018-03-26T03:31:43.751Z,17.80
2018-03-26T03:32:43.718Z,16.80
2018-03-26T03:33:43.691Z,18.50
2018-03-26T03:34:43.661Z,16.50
2018-03-26T03:35:43.623Z,17.30
2018-03-26T03:36:43.600Z,16.30
2018-03-26T03:37:43.571Z,17.10
2018-03-26T03:38:43.541Z,17.30
2018-03-26T03:39:43.509Z,17.20
2018-03-26T03:40:43.476Z,18.00
2018-03-26T03:41:43.458Z,17.70
2018-03-26T03:42:43.428Z,16.10
2018-03-26T03:43:43.392Z,16.30
2018-03-26T03:44:43.377Z,17.40
2018-03-26T03:45:43.388Z,17.80
2018-03-26T03:46:43.313Z,17.30
2018-03-26T03:47:43.289Z,15.70
2018-03-26T03:48:43.253Z,17.40
2018-03-26T03:49:43.215Z,15.60
2018-03-26T03:50:43.188Z,17.30
2018-03-26T03:51:43.179Z,16.40
2018-03-26T03:52:43.135Z,17.00
2018-03-26T03:53:43.114Z,16.30
2018-03-26T03:54:43.072Z,17.10
2018-03-26T03:55:43.041Z,16.60
2018-03-26T03:56:43.014Z,17.90
2018-03-26T03:57:42.991Z,16.70
2018-03-26T03:58:43.001Z,17.00
2018-03-26T03:59:42.930Z,16.20
2018-03-26T04:00:42.909Z,16.60
2018-03-26T04:01:42.881Z,17.20
2018-03-26T04:02:42.842Z,18.60
2018-03-26T04:03:42.818Z,17.60
2018-03-26T04:04:42.804Z,18.60
2018-03-26T04:05:42.752Z,17.30
2018-03-26T04:06:42.723Z,15.60
2018-03-26T04:07:42.695Z,17.20
2018-03-26T04:08:42.669Z,16.80
2018-03-26T04:09:42.639Z,16.70
2018-03-26T04:10:42.611Z,15.00
2018-03-26T04:11:42.580Z,15.60
2018-03-26T04:12:42.554Z,16.80
2018-03-26T04:13:42.524Z,17.00
2018-03-26T04:14:42.492Z,17.70
2018-03-26T04:15:43.000Z,18.30
2018-03-26T04:16:42.439Z,17.20
2018-03-26T04:17:42.408Z,17.60
2018-03-26T04:18:42.383Z,17.30
2018-03-26T04:19:42.343Z,16.50
2018-03-26T04:20:42.317Z,20.30
2018-03-26T04:21:42.303Z,18.00
2018-03-26T04:22:42.274Z,15.70
2018-03-26T04:23:42.233Z,19.60
2018-03-26T04:24:42.202Z,16.40
2018-03-26T04:25:42.186Z,19.70
2018-03-26T04:26:42.146Z,16.60
2018-03-26T04:27:42.116Z,16.70
2018-03-26T04:28:42.097Z,15.40
2018-03-26T04:29:42.058Z,15.50
2018-03-26T04:30:42.041Z,14.10
2018-03-26T04:31:42.005Z,14.20
2018-03-26T04:32:41.975Z,17.40
2018-03-26T04:33:41.979Z,21.50
2018-03-26T04:34:41.920Z,15.50
2018-03-26T04:35:41.893Z,17.40
2018-03-26T04:36:41.858Z,15.80
2018-03-26T04:37:41.836Z,16.60
2018-03-26T04:38:41.805Z,16.00
2018-03-26T04:39:41.764Z,17.60
2018-03-26T04:40:41.735Z,15.70
2018-03-26T04:41:41.745Z,15.60
2018-03-26T04:42:41.731Z,14.80
2018-03-26T04:43:41.656Z,15.50
2018-03-26T04:44:41.625Z,15.60
2018-03-26T04:45:41.619Z,20.80
2018-03-26T04:46:41.563Z,14.40
2018-03-26T04:47:41.537Z,24.60
2018-03-26T04:48:41.546Z,28.10
2018-03-26T04:49:41.482Z,23.70
2018-03-26T04:50:41.455Z,26.10
2018-03-26T04:51:41.415Z,27.50
2018-03-26T04:52:41.401Z,20.00
2018-03-26T04:53:41.361Z,15.40
2018-03-26T04:54:41.325Z,16.40
2018-03-26T04:55:41.307Z,14.70
2018-03-26T04:56:41.284Z,15.60
2018-03-26T04:57:41.247Z,13.70
2018-03-26T04:58:41.256Z,14.60
2018-03-26T04:59:41.207Z,15.10
2018-03-26T05:00:41.178Z,14.20
2018-03-26T05:01:41.127Z,15.50
2018-03-26T05:02:41.095Z,15.10
2018-03-26T05:03:41.066Z,15.50
2018-03-26T05:04:41.044Z,15.70
2018-03-26T05:05:41.011Z,14.40
2018-03-26T05:06:40.985Z,14.90
2018-03-26T05:07:40.956Z,15.50
2018-03-26T05:08:40.930Z,14.40
2018-03-26T05:09:40.904Z,16.50
2018-03-26T05:10:40.872Z,14.10
2018-03-26T05:11:40.831Z,15.00
2018-03-26T05:12:40.809Z,15.00
2018-03-26T05:13:40.791Z,14.20
2018-03-26T05:14:40.743Z,13.40
2018-03-26T05:15:40.731Z,13.90
2018-03-26T05:16:40.696Z,13.60
2018-03-26T05:17:40.662Z,14.20
2018-03-26T05:18:40.635Z,13.20
2018-03-26T05:19:40.625Z,13.80
2018-03-26T05:20:40.577Z,13.90
2018-03-26T05:21:40.538Z,13.90
2018-03-26T05:22:40.570Z,14.50
2018-03-26T05:23:40.477Z,12.90
2018-03-26T05:24:40.453Z,14.20
2018-03-26T05:25:40.426Z,14.00
2018-03-26T05:26:40.402Z,13.90
2018-03-26T05:27:40.364Z,14.70
2018-03-26T05:28:40.332Z,14.20
2018-03-26T05:29:40.318Z,15.30
2018-03-26T05:30:40.282Z,14.70
2018-03-26T05:31:40.253Z,13.90
2018-03-26T05:32:40.243Z,13.80
2018-03-26T05:33:40.208Z,13.30
2018-03-26T05:34:40.163Z,14.00
2018-03-26T05:35:40.140Z,13.20
2018-03-26T05:36:40.107Z,13.20
2018-03-26T05:37:40.081Z,13.40
2018-03-26T05:38:40.047Z,12.70
2018-03-26T05:39:40.038Z,11.30
2018-03-26T05:40:39.992Z,11.60
2018-03-26T05:41:39.956Z,14.00
2018-03-26T05:42:39.945Z,13.10
2018-03-26T05:43:39.897Z,12.70
2018-03-26T05:44:39.877Z,12.90
2018-03-26T05:45:39.838Z,12.20
2018-03-26T05:46:39.837Z,12.10
2018-03-26T05:47:39.788Z,12.10
2018-03-26T05:48:39.757Z,11.40
2018-03-26T05:49:39.718Z,12.40
2018-03-26T05:50:39.690Z,11.30
2018-03-26T05:51:39.662Z,11.40
2018-03-26T05:52:39.638Z,11.10
2018-03-26T05:53:39.609Z,11.90
2018-03-26T05:54:39.572Z,11.50
2018-03-26T05:55:39.553Z,11.40
2018-03-26T05:56:39.513Z,11.60
2018-03-26T05:57:39.493Z,12.00
2018-03-26T05:58:39.456Z,14.00
2018-03-26T05:59:39.430Z,11.70
2018-03-26T06:00:39.412Z,10.40
2018-03-26T06:01:39.372Z,11.60
2018-03-26T06:02:39.347Z,12.30
2018-03-26T06:03:39.310Z,11.60
2018-03-26T06:04:39.276Z,10.60
2018-03-26T06:05:39.257Z,12.20
2018-03-26T06:06:39.259Z,11.20
2018-03-26T06:07:39.230Z,10.80
2018-03-26T06:08:39.191Z,12.00
2018-03-26T06:09:39.132Z,11.30
2018-03-26T06:10:39.155Z,10.50
2018-03-26T06:11:39.081Z,12.00
2018-03-26T06:12:39.048Z,11.30
2018-03-26T06:13:39.016Z,12.20
2018-03-26T06:14:38.995Z,11.20
2018-03-26T06:15:38.958Z,11.70
2018-03-26T06:16:38.929Z,11.30
2018-03-26T06:17:38.896Z,12.50
2018-03-26T06:18:38.878Z,11.60
2018-03-26T06:19:38.842Z,12.90
2018-03-26T06:20:38.819Z,11.50
2018-03-26T06:21:38.780Z,11.00
2018-03-26T06:22:38.762Z,11.50
2018-03-26T06:23:38.737Z,11.20
2018-03-26T06:24:38.692Z,12.80
2018-03-26T06:25:38.671Z,11.50
2018-03-26T06:26:38.631Z,12.20
2018-03-26T06:27:38.604Z,11.70
2018-03-26T06:28:38.584Z,11.40
2018-03-26T06:29:38.546Z,11.00
2018-03-26T06:30:38.534Z,11.40
2018-03-26T06:31:40.106Z,11.20
2018-03-26T06:32:40.073Z,11.00
2018-03-26T06:33:40.105Z,10.50
2018-03-26T06:34:38.402Z,12.40
2018-03-26T06:35:38.384Z,12.10
2018-03-26T06:36:38.339Z,10.60
2018-03-26T06:37:38.323Z,10.70
2018-03-26T06:38:38.285Z,11.20
2018-03-26T06:39:38.247Z,10.10
2018-03-26T06:40:38.219Z,11.10
2018-03-26T06:41:38.182Z,10.70
2018-03-26T06:42:38.186Z,10.60
2018-03-26T06:43:46.262Z,10.80
2018-03-26T06:45:31.034Z,10.60
2018-03-26T06:46:30.948Z,10.00
2018-03-26T06:47:30.984Z,11.40
2018-03-26T06:48:30.894Z,11.00
2018-03-26T06:49:30.860Z,9.80
2018-03-26T06:50:30.828Z,10.10
2018-03-26T06:51:30.809Z,9.70
2018-03-26T06:52:30.788Z,9.50
2018-03-26T06:53:30.742Z,9.00
2018-03-26T06:54:30.745Z,10.70
2018-03-26T06:55:30.692Z,9.40
2018-03-26T06:56:30.671Z,9.50
2018-03-26T06:57:30.617Z,9.60
2018-03-26T06:58:30.599Z,10.20
2018-03-26T06:59:30.565Z,9.10
2018-03-26T07:00:30.529Z,10.40
2018-03-26T07:01:30.520Z,9.00
2018-03-26T07:02:30.493Z,9.50
2018-03-26T07:03:30.487Z,10.50
2018-03-26T07:04:30.421Z,10.40
2018-03-26T07:05:30.392Z,10.30
2018-03-26T07:06:30.355Z,11.40
2018-03-26T07:07:30.333Z,11.20
2018-03-26T07:08:30.298Z,11.20
2018-03-26T07:09:30.272Z,11.30
2018-03-26T07:10:30.246Z,10.70
2018-03-26T07:11:30.200Z,10.40
2018-03-26T07:12:30.214Z,10.90
2018-03-26T07:13:30.155Z,11.30
2018-03-26T07:14:30.114Z,11.00
2018-03-26T07:15:30.116Z,11.20
2018-03-26T07:16:30.057Z,10.80
2018-03-26T07:17:30.018Z,10.90
2018-03-26T07:18:29.995Z,12.40
2018-03-26T07:19:29.971Z,12.40
2018-03-26T07:20:29.949Z,10.60
2018-03-26T07:21:29.901Z,10.80
2018-03-26T07:22:29.869Z,11.80
2018-03-26T07:23:29.859Z,11.60
2018-03-26T07:24:29.814Z,11.00
2018-03-26T07:25:29.829Z,9.30
2018-03-26T07:26:29.757Z,11.60
2018-03-26T07:27:29.730Z,11.60
2018-03-26T07:28:29.697Z,10.10
2018-03-26T07:29:29.717Z,11.40
2018-03-26T07:30:29.637Z,11.30
2018-03-26T07:31:29.603Z,10.40
2018-03-26T07:32:29.575Z,10.20
2018-03-26T07:33:29.539Z,10.50
2018-03-26T07:34:29.507Z,9.40
2018-03-26T07:35:29.493Z,10.70
2018-03-26T07:36:29.457Z,10.50
2018-03-26T07:37:29.425Z,10.30
2018-03-26T07:38:29.390Z,10.70
2018-03-26T07:39:29.363Z,10.30
2018-03-26T07:40:29.340Z,10.20
2018-03-26T07:41:29.306Z,10.60
2018-03-26T07:42:29.282Z,9.20
2018-03-26T07:43:29.244Z,9.50
2018-03-26T07:44:29.337Z,17.60
2018-03-26T07:45:29.184Z,15.50
2018-03-26T07:46:29.155Z,20.10
2018-03-26T07:47:29.129Z,15.60
2018-03-26T07:48:29.096Z,67.20
2018-03-26T07:49:29.071Z,35.30
2018-03-26T07:50:29.037Z,28.10
2018-03-26T07:51:29.005Z,40.10
2018-03-26T07:52:28.974Z,34.60
2018-03-26T07:53:28.941Z,42.40
2018-03-26T07:54:28.915Z,9.90
2018-03-26T07:55:28.886Z,9.50
2018-03-26T07:56:28.850Z,8.50
2018-03-26T07:57:28.829Z,23.80
2018-03-26T07:58:28.795Z,8.00
2018-03-26T07:59:28.770Z,37.90
2018-03-26T08:00:28.740Z,9.20
2018-03-26T08:01:28.708Z,8.90
2018-03-26T08:02:28.672Z,8.00
2018-03-26T08:03:28.658Z,7.10
2018-03-26T08:04:28.615Z,7.10
2018-03-26T08:05:28.589Z,7.60
2018-03-26T08:06:28.549Z,6.20
2018-03-26T08:07:28.534Z,12.70
2018-03-26T08:08:28.494Z,10.10
2018-03-26T08:09:28.465Z,7.50
2018-03-26T08:10:28.447Z,9.10
2018-03-26T08:11:28.431Z,6.60
2018-03-26T08:12:28.379Z,9.50
2018-03-26T08:13:28.340Z,5.60
2018-03-26T08:14:28.311Z,5.60
2018-03-26T08:15:28.286Z,5.70
2018-03-26T08:16:28.252Z,6.30
2018-03-26T08:17:28.225Z,5.20
2018-03-26T08:18:28.192Z,4.50
2018-03-26T08:19:28.169Z,4.50
2018-03-26T08:20:28.137Z,6.20
2018-03-26T08:21:28.099Z,4.40
2018-03-26T08:22:28.111Z,5.10
2018-03-26T08:23:28.046Z,5.20
2018-03-26T08:24:28.015Z,4.70
2018-03-26T08:25:27.996Z,5.10
2018-03-26T08:26:27.968Z,4.90
2018-03-26T08:27:27.929Z,5.20
2018-03-26T08:28:27.899Z,4.90
2018-03-26T08:29:27.878Z,4.40
2018-03-26T08:30:27.829Z,5.50
2018-03-26T08:31:27.804Z,5.20
2018-03-26T08:32:27.800Z,5.40
2018-03-26T08:33:27.746Z,6.10
2018-03-26T08:34:27.711Z,5.10
2018-03-26T08:35:27.685Z,4.80
2018-03-26T08:36:27.711Z,5.50
2018-03-26T08:37:27.621Z,6.50
2018-03-26T08:38:27.589Z,5.40
2018-03-26T08:39:27.639Z,5.60
2018-03-26T08:40:27.540Z,5.20
2018-03-26T08:41:27.499Z,5.40
2018-03-26T08:42:27.513Z,6.20
2018-03-26T08:43:27.443Z,6.20
2018-03-26T08:44:27.414Z,4.90
2018-03-26T08:45:27.383Z,5.00
2018-03-26T08:46:27.351Z,5.10
2018-03-26T08:47:35.075Z,5.30
2018-03-26T08:49:32.773Z,4.90
2018-03-26T08:50:32.716Z,6.00
2018-03-26T08:52:25.633Z,5.90
2018-03-26T08:53:25.606Z,5.50
2018-03-26T08:54:25.536Z,5.50
2018-03-26T08:55:25.512Z,5.90
2018-03-26T08:56:25.485Z,6.40
2018-03-26T08:57:25.451Z,6.20
2018-03-26T08:58:25.429Z,6.30
2018-03-26T08:59:25.389Z,7.00
2018-03-26T09:00:25.371Z,6.70
2018-03-26T09:01:25.331Z,6.20
2018-03-26T09:02:25.308Z,6.60
2018-03-26T09:03:25.293Z,5.40
2018-03-26T09:04:25.247Z,5.50
2018-03-26T09:05:25.214Z,6.10
2018-03-26T09:06:25.192Z,6.20
2018-03-26T09:07:25.155Z,5.80
2018-03-26T09:08:25.116Z,6.70
2018-03-26T09:09:25.128Z,6.20
2018-03-26T09:10:25.070Z,5.90
2018-03-26T09:11:25.025Z,5.90
2018-03-26T09:12:25.002Z,5.30
2018-03-26T09:13:24.970Z,5.30
2018-03-26T09:14:24.948Z,4.60
2018-03-26T09:15:24.911Z,4.70
2018-03-26T09:16:24.883Z,4.70
2018-03-26T09:17:24.860Z,5.80
2018-03-26T09:18:24.817Z,5.40
2018-03-26T09:19:24.801Z,5.10
2018-03-26T09:20:24.772Z,4.60
2018-03-26T09:21:24.733Z,4.80
2018-03-26T09:22:24.707Z,5.00
2018-03-26T09:23:24.673Z,4.70
2018-03-26T09:24:24.639Z,4.00
2018-03-26T09:25:24.621Z,4.00
2018-03-26T09:26:24.582Z,3.80
2018-03-26T09:27:24.550Z,4.70
2018-03-26T09:28:24.528Z,5.20
2018-03-26T09:29:24.490Z,3.90
2018-03-26T09:30:24.465Z,4.20
2018-03-26T09:31:24.460Z,5.20
2018-03-26T09:32:24.425Z,4.90
2018-03-26T09:33:24.391Z,4.80
2018-03-26T09:34:24.347Z,4.80
2018-03-26T09:35:24.316Z,5.00
2018-03-26T09:36:24.289Z,4.40
2018-03-26T09:37:24.258Z,4.80
2018-03-26T09:38:24.224Z,5.20
2018-03-26T09:39:24.208Z,4.50
2018-03-26T09:40:24.166Z,4.80
2018-03-26T09:41:24.142Z,4.90
2018-03-26T09:42:24.147Z,5.00
2018-03-26T09:43:24.103Z,4.70
2018-03-26T09:44:24.055Z,4.60
2018-03-26T09:45:24.019Z,4.90
2018-03-26T09:46:23.990Z,5.40
2018-03-26T09:47:23.962Z,5.30
2018-03-26T09:48:23.925Z,4.80
2018-03-26T09:49:23.902Z,4.80
2018-03-26T09:50:23.876Z,4.80
2018-03-26T09:51:23.846Z,5.10
2018-03-26T09:52:23.809Z,4.50
2018-03-26T09:53:23.782Z,4.20
2018-03-26T09:54:23.775Z,5.30
2018-03-26T09:55:23.717Z,4.60
2018-03-26T09:56:23.704Z,5.40
2018-03-26T09:57:23.661Z,5.00
2018-03-26T09:58:23.635Z,4.10
2018-03-26T09:59:23.603Z,5.10
2018-03-26T10:00:23.601Z,4.40
2018-03-26T10:01:23.550Z,4.90
2018-03-26T10:02:23.526Z,4.80
2018-03-26T10:03:23.482Z,4.80
2018-03-26T10:04:23.458Z,4.60
2018-03-26T10:05:23.435Z,4.50
2018-03-26T10:06:23.404Z,5.00
2018-03-26T10:07:23.372Z,4.40
2018-03-26T10:08:23.354Z,4.70
2018-03-26T10:09:23.309Z,4.50
2018-03-26T10:10:23.288Z,4.70
2018-03-26T10:11:23.264Z,4.60
2018-03-26T10:12:23.223Z,4.10
2018-03-26T10:13:23.192Z,4.20
2018-03-26T10:14:23.174Z,4.20
2018-03-26T10:15:23.133Z,4.50
2018-03-26T10:16:23.105Z,4.90
2018-03-26T10:17:23.085Z,4.40
2018-03-26T10:18:23.065Z,4.40
2018-03-26T10:19:23.017Z,4.90
2018-03-26T10:20:22.985Z,4.50
2018-03-26T10:21:22.972Z,4.30
2018-03-26T10:22:22.935Z,4.70
2018-03-26T10:23:22.904Z,4.60
2018-03-26T10:24:22.876Z,4.10
2018-03-26T10:25:22.854Z,4.10
2018-03-26T10:26:22.817Z,3.80
2018-03-26T10:27:22.793Z,4.60
2018-03-26T10:28:22.764Z,4.50
2018-03-26T10:29:22.738Z,4.00
2018-03-26T10:30:22.709Z,4.60
2018-03-26T10:31:22.673Z,4.20
2018-03-26T10:32:22.644Z,4.30
2018-03-26T10:33:22.613Z,4.40
2018-03-26T10:34:22.595Z,3.80
2018-03-26T10:35:22.558Z,4.10
2018-03-26T10:36:22.534Z,4.60
2018-03-26T10:37:22.499Z,4.20
2018-03-26T10:38:22.474Z,4.70
2018-03-26T10:39:22.446Z,4.90
2018-03-26T10:40:22.446Z,4.70
2018-03-26T10:41:22.382Z,4.80
2018-03-26T10:42:22.361Z,5.10
2018-03-26T10:43:22.370Z,4.60
2018-03-26T10:44:22.298Z,4.80
2018-03-26T10:45:22.305Z,4.40
2018-03-26T10:46:22.237Z,4.50
2018-03-26T10:47:22.217Z,4.30
2018-03-26T10:48:22.181Z,4.40
2018-03-26T10:49:22.155Z,4.40
2018-03-26T10:50:22.125Z,4.30
2018-03-26T10:51:22.103Z,4.30
2018-03-26T10:52:22.064Z,3.40
2018-03-26T10:53:22.044Z,3.90
2018-03-26T10:54:22.011Z,4.10
2018-03-26T10:55:21.986Z,4.10
2018-03-26T10:56:21.955Z,3.80
2018-03-26T10:57:21.934Z,3.80
2018-03-26T10:58:21.900Z,3.60
2018-03-26T10:59:21.882Z,3.50
2018-03-26T11:00:21.840Z,3.70
2018-03-26T11:01:21.818Z,3.60
2018-03-26T11:02:21.784Z,3.70
2018-03-26T11:03:21.752Z,3.60
2018-03-26T11:04:21.721Z,3.60
2018-03-26T11:05:21.701Z,3.90
2018-03-26T11:06:21.681Z,4.40
2018-03-26T11:07:21.635Z,3.70
2018-03-26T11:08:21.611Z,4.00
2018-03-26T11:09:21.623Z,3.70
2018-03-26T11:10:21.559Z,3.70
2018-03-26T11:11:21.537Z,3.90
2018-03-26T11:12:21.505Z,3.80
2018-03-26T11:13:21.506Z,4.40
2018-03-26T11:14:21.457Z,3.40
2018-03-26T11:15:21.425Z,3.80
2018-03-26T11:16:21.378Z,3.40
2018-03-26T11:17:21.357Z,3.90
2018-03-26T11:18:21.326Z,3.60
2018-03-26T11:19:21.304Z,4.10
2018-03-26T11:20:21.275Z,3.50
2018-03-26T11:21:21.249Z,3.70
2018-03-26T11:22:21.223Z,2.90
2018-03-26T11:23:21.189Z,3.60
2018-03-26T11:24:21.162Z,3.80
2018-03-26T11:25:21.125Z,3.70
2018-03-26T11:26:21.102Z,3.40
2018-03-26T11:27:21.077Z,3.20
2018-03-26T11:28:21.045Z,3.40
2018-03-26T11:29:21.010Z,3.30
2018-03-26T11:30:20.981Z,2.90
2018-03-26T11:31:20.965Z,3.20
2018-03-26T11:32:20.970Z,3.70
2018-03-26T11:33:20.923Z,3.40
2018-03-26T11:34:20.872Z,3.70
2018-03-26T11:35:20.845Z,3.50
2018-03-26T11:36:20.894Z,3.70
2018-03-26T11:37:20.785Z,3.90
2018-03-26T11:38:20.764Z,3.50
2018-03-26T11:39:20.732Z,3.30
2018-03-26T11:40:20.700Z,3.20
2018-03-26T11:41:20.679Z,3.50
2018-03-26T11:42:20.685Z,3.80
2018-03-26T11:43:20.642Z,3.30
2018-03-26T11:44:20.599Z,3.60
2018-03-26T11:45:20.563Z,3.70
2018-03-26T11:46:20.545Z,3.80
2018-03-26T11:47:20.532Z,3.50
2018-03-26T11:48:20.479Z,3.60
2018-03-26T11:49:20.453Z,3.30
2018-03-26T11:50:20.438Z,3.10
2018-03-26T11:51:20.397Z,3.00
2018-03-26T11:52:20.455Z,3.50
2018-03-26T11:53:20.349Z,3.60
2018-03-26T11:54:20.320Z,3.00
2018-03-26T11:55:21.173Z,3.20
2018-03-26T11:56:20.266Z,2.80
2018-03-26T11:57:20.236Z,3.20
2018-03-26T11:58:20.200Z,3.30
2018-03-26T11:59:20.191Z,3.60
2018-03-26T12:00:20.155Z,3.60
2018-03-26T12:01:20.123Z,3.50
2018-03-26T12:02:20.103Z,3.70
2018-03-26T12:03:20.076Z,3.20
2018-03-26T12:04:20.050Z,3.50
2018-03-26T12:05:20.018Z,3.40
2018-03-26T12:06:19.985Z,2.90
2018-03-26T12:07:19.951Z,3.20
2018-03-26T12:08:19.943Z,3.50
2018-03-26T12:09:19.959Z,3.50
2018-03-26T12:10:19.871Z,3.30
2018-03-26T12:11:19.839Z,4.00
2018-03-26T12:12:19.812Z,3.30
2018-03-26T12:13:19.790Z,3.10
2018-03-26T12:14:19.759Z,3.60
2018-03-26T12:15:19.731Z,3.50
2018-03-26T12:16:19.709Z,3.40
2018-03-26T12:17:19.674Z,2.90
2018-03-26T12:18:19.653Z,3.20
2018-03-26T12:19:19.631Z,3.50
2018-03-26T12:20:19.594Z,3.30
2018-03-26T12:21:19.558Z,3.20
2018-03-26T12:22:19.537Z,3.50
2018-03-26T12:23:19.517Z,3.30
2018-03-26T12:24:19.494Z,3.30
2018-03-26T12:25:19.479Z,2.80
2018-03-26T12:26:19.438Z,3.00
2018-03-26T12:27:19.396Z,2.40
2018-03-26T12:28:19.375Z,3.10
2018-03-26T12:29:19.340Z,2.90
2018-03-26T12:30:19.379Z,2.70
2018-03-26T12:31:19.286Z,3.10
2018-03-26T12:32:19.261Z,3.40
2018-03-26T12:33:19.234Z,2.70
2018-03-26T12:34:19.218Z,3.70
2018-03-26T12:35:19.183Z,2.60
2018-03-26T12:36:19.152Z,2.90
2018-03-26T12:37:19.126Z,2.80
2018-03-26T12:38:19.095Z,2.80
2018-03-26T12:39:19.070Z,3.10
2018-03-26T12:40:19.045Z,3.20
2018-03-26T12:41:19.017Z,2.80
2018-03-26T12:42:19.000Z,3.40
2018-03-26T12:43:18.962Z,2.70
2018-03-26T12:44:19.040Z,3.10
2018-03-26T12:45:18.910Z,3.20
2018-03-26T12:46:18.882Z,3.00
2018-03-26T12:47:18.849Z,3.00
2018-03-26T12:48:18.862Z,3.10
2018-03-26T12:49:18.792Z,3.30
2018-03-26T12:50:18.777Z,3.30
2018-03-26T12:51:18.739Z,3.10
2018-03-26T12:52:18.713Z,2.60
2018-03-26T12:53:18.696Z,3.00
2018-03-26T12:54:18.686Z,2.90
2018-03-26T12:55:18.629Z,3.00
2018-03-26T12:56:18.611Z,2.80
2018-03-26T12:57:18.644Z,3.20
2018-03-26T12:58:18.554Z,3.00
2018-03-26T12:59:18.553Z,3.30
2018-03-26T13:00:18.498Z,3.00
2018-03-26T13:01:18.471Z,3.40
2018-03-26T13:02:18.447Z,3.00
2018-03-26T13:03:18.413Z,3.30
2018-03-26T13:04:18.388Z,3.10
2018-03-26T13:05:18.368Z,2.90
2018-03-26T13:06:18.367Z,2.50